createdAt,value
2019-04-07T00:00:03.953Z,10.2
2019-04-07T00:00:55.254Z,10.2
2019-04-07T00:01:44.365Z,10.2
2019-04-07T00:02:34.499Z,10.2
2019-04-07T00:03:24.490Z,10.2
2019-04-07T00:04:13.135Z,10.1
2019-04-07T00:05:15.089Z,10.1
2019-04-07T00:05:54.932Z,10.1
2019-04-07T00:06:43.895Z,10.1
2019-04-07T00:07:35.047Z,10.1
2019-04-07T00:08:23.990Z,10.1
2019-04-07T00:09:14.073Z,10.1
2019-04-07T00:10:04.150Z,10.1
2019-04-07T00:10:53.900Z,10.1
2019-04-07T00:11:45.210Z,10.1
2019-04-07T00:12:34.542Z,10.1
2019-04-07T00:13:23.805Z,10.1
2019-04-07T00:14:14.635Z,10.1
2019-04-07T00:15:05.916Z,10.1
2019-04-07T00:15:54.536Z,10.1
2019-04-07T00:16:45.295Z,10
2019-04-07T00:17:34.383Z,10
2019-04-07T00:18:25.117Z,10
2019-04-07T00:19:15.529Z,10
2019-04-07T00:20:05.442Z,10
2019-04-07T00:20:55.689Z,9.9
2019-04-07T00:21:45.542Z,9.9
2019-04-07T00:22:35.679Z,9.9
2019-04-07T00:23:25.069Z,9.9
2019-04-07T00:24:15.137Z,9.9
2019-04-07T00:25:05.802Z,9.9
2019-04-07T00:25:54.964Z,9.9
2019-04-07T00:26:45.538Z,9.9
2019-04-07T00:27:35.166Z,9.9
2019-04-07T00:28:25.154Z,9.9
2019-04-07T00:29:15.556Z,9.9
2019-04-07T00:30:05.552Z,9.9
2019-04-07T00:30:55.626Z,9.9
2019-04-07T00:31:45.801Z,9.9
2019-04-07T00:32:35.769Z,9.9
2019-04-07T00:33:27.190Z,9.8
2019-04-07T00:34:16.434Z,9.8
2019-04-07T00:35:06.497Z,9.8
2019-04-07T00:35:56.829Z,9.8
2019-04-07T00:36:46.851Z,9.8
2019-04-07T00:37:37.353Z,9.8
2019-04-07T00:38:26.160Z,9.8
2019-04-07T00:39:16.769Z,9.8
2019-04-07T00:40:08.554Z,9.8
2019-04-07T00:40:57.671Z,9.8
2019-04-07T00:41:48.036Z,9.8
2019-04-07T00:42:36.661Z,9.8
2019-04-07T00:43:28.512Z,9.7
2019-04-07T00:44:18.938Z,9.7
2019-04-07T00:45:07.039Z,9.7
2019-04-07T00:45:57.988Z,9.7
2019-04-07T00:46:47.645Z,9.7
2019-04-07T00:47:38.847Z,9.7
2019-04-07T00:48:27.458Z,9.7
2019-04-07T00:49:17.165Z,9.7
2019-04-07T00:50:09.230Z,9.7
2019-04-07T00:50:57.055Z,9.6
2019-04-07T00:51:48.495Z,9.7
2019-04-07T00:52:38.050Z,9.6
2019-04-07T00:53:27.380Z,9.6
2019-04-07T00:54:17.755Z,9.6
2019-04-07T00:55:08.783Z,9.6
2019-04-07T00:55:58.200Z,9.6
2019-04-07T00:56:47.507Z,9.6
2019-04-07T00:57:37.998Z,9.6
2019-04-07T00:58:29.023Z,9.6
2019-04-07T00:59:18.631Z,9.6
2019-04-07T01:00:08.052Z,9.6
2019-04-07T01:00:57.527Z,9.6
2019-04-07T01:01:47.943Z,9.6
2019-04-07T01:02:39.835Z,9.6
2019-04-07T01:03:29.103Z,9.6
2019-04-07T01:04:18.045Z,9.5
2019-04-07T01:05:08.301Z,9.5
2019-04-07T01:05:59.210Z,9.5
2019-04-07T01:06:49.415Z,9.5
2019-04-07T01:07:38.874Z,9.5
2019-04-07T01:08:29.332Z,9.5
2019-04-07T01:09:18.679Z,9.5
2019-04-07T01:10:08.729Z,9.4
2019-04-07T01:10:59.116Z,9.5
2019-04-07T01:11:49.546Z,9.4
2019-04-07T01:12:40.004Z,9.4
2019-04-07T01:13:28.702Z,9.4
2019-04-07T01:14:18.902Z,9.4
2019-04-07T01:15:09.811Z,9.4
2019-04-07T01:16:00.176Z,9.4
2019-04-07T01:16:49.226Z,9.4
2019-04-07T01:17:39.704Z,9.4
2019-04-07T01:18:29.070Z,9.4
2019-04-07T01:19:19.988Z,9.4
2019-04-07T01:20:10.598Z,9.4
2019-04-07T01:20:59.508Z,9.4
2019-04-07T01:21:49.975Z,9.4
2019-04-07T01:22:39.760Z,9.4
2019-04-07T01:23:29.173Z,9.4
2019-04-07T01:24:21.003Z,9.3
2019-04-07T01:25:10.456Z,9.4
2019-04-07T01:25:59.618Z,9.3
2019-04-07T01:26:50.268Z,9.3
2019-04-07T01:27:41.207Z,9.3
2019-04-07T01:28:30.206Z,9.3
2019-04-07T01:29:20.973Z,9.3
2019-04-07T01:30:11.748Z,9.3
2019-04-07T01:31:00.071Z,9.3
2019-04-07T01:31:50.608Z,9.3
2019-04-07T01:32:40.928Z,9.3
2019-04-07T01:33:30.160Z,9.3
2019-04-07T01:34:21.763Z,9.3
2019-04-07T01:35:12.244Z,9.3
2019-04-07T01:36:02.255Z,9.3
2019-04-07T01:36:51.225Z,9.3
2019-04-07T01:37:42.899Z,9.3
2019-04-07T01:38:32.333Z,9.2
2019-04-07T01:39:20.778Z,9.2
2019-04-07T01:40:11.827Z,9.2
2019-04-07T01:41:03.125Z,9.2
2019-04-07T01:41:51.795Z,9.3
2019-04-07T01:42:41.957Z,9.2
2019-04-07T01:43:31.755Z,9.2
2019-04-07T01:44:21.678Z,9.2
2019-04-07T01:45:13.805Z,9.2
2019-04-07T01:46:02.173Z,9.2
2019-04-07T01:46:51.513Z,9.2
2019-04-07T01:47:40.900Z,9.1
2019-04-07T01:48:31.944Z,9.1
2019-04-07T01:49:21.623Z,9.1
2019-04-07T01:50:13.115Z,9.1
2019-04-07T01:51:01.714Z,9.1
2019-04-07T01:51:51.802Z,9.1
2019-04-07T01:52:42.586Z,9.1
2019-04-07T01:53:31.773Z,9.1
2019-04-07T01:54:22.917Z,9.1
2019-04-07T01:55:12.855Z,9.1
2019-04-07T01:56:02.912Z,9.1
2019-04-07T01:56:52.575Z,9.1
2019-04-07T01:57:42.064Z,9.1
2019-04-07T01:58:33.925Z,9.1
2019-04-07T01:59:23.268Z,9.1
2019-04-07T02:00:12.641Z,9
2019-04-07T02:01:03.129Z,9.1
2019-04-07T02:01:53.826Z,9.1
2019-04-07T02:02:42.347Z,9.1
2019-04-07T02:03:34.088Z,9
2019-04-07T02:04:23.659Z,9
2019-04-07T02:05:12.444Z,9
2019-04-07T02:06:06.829Z,9
2019-04-07T02:06:53.371Z,8.9
2019-04-07T02:07:42.638Z,8.9
2019-04-07T02:08:32.741Z,8.9
2019-04-07T02:09:24.804Z,8.9
2019-04-07T02:10:13.666Z,8.9
2019-04-07T02:11:03.536Z,8.9
2019-04-07T02:11:53.833Z,8.9
2019-04-07T02:12:43.361Z,8.9
2019-04-07T02:13:35.041Z,8.9
2019-04-07T02:14:24.050Z,8.9
2019-04-07T02:15:14.361Z,8.9
2019-04-07T02:16:04.027Z,8.9
2019-04-07T02:16:53.311Z,8.9
2019-04-07T02:17:44.771Z,8.9
2019-04-07T02:18:34.228Z,8.8
2019-04-07T02:19:24.086Z,8.8
2019-04-07T02:20:13.551Z,8.8
2019-04-07T02:21:05.306Z,8.8
2019-04-07T02:21:53.726Z,8.8
2019-04-07T02:22:44.416Z,8.8
2019-04-07T02:23:33.925Z,8.8
2019-04-07T02:24:25.544Z,8.8
2019-04-07T02:25:15.095Z,8.8
2019-04-07T02:26:04.581Z,8.8
2019-04-07T02:26:54.844Z,8.8
2019-04-07T02:27:44.655Z,8.8
2019-04-07T02:28:35.038Z,8.7
2019-04-07T02:29:25.363Z,8.7
2019-04-07T02:30:17.094Z,8.7
2019-04-07T02:31:04.816Z,8.7
2019-04-07T02:31:55.697Z,8.7
2019-04-07T02:32:46.648Z,8.7
2019-04-07T02:33:35.876Z,8.7
2019-04-07T02:34:26.217Z,8.7
2019-04-07T02:35:17.045Z,8.6
2019-04-07T02:36:32.006Z,8.6
2019-04-07T02:36:55.967Z,8.6
2019-04-07T02:37:46.471Z,8.6
2019-04-07T02:38:36.832Z,8.6
2019-04-07T02:39:27.064Z,8.6
2019-04-07T02:40:15.594Z,8.6
2019-04-07T02:41:06.168Z,8.6
2019-04-07T02:41:56.974Z,8.6
2019-04-07T02:42:45.992Z,8.6
2019-04-07T02:43:35.198Z,8.6
2019-04-07T02:44:27.206Z,8.6
2019-04-07T02:45:16.957Z,8.6
2019-04-07T02:46:06.771Z,8.6
2019-04-07T02:46:56.761Z,8.6
2019-04-07T02:47:46.707Z,8.6
2019-04-07T02:48:36.210Z,8.6
2019-04-07T02:49:26.247Z,8.5
2019-04-07T02:50:17.609Z,8.6
2019-04-07T02:51:06.504Z,8.5
2019-04-07T02:51:56.755Z,8.5
2019-04-07T02:52:47.175Z,8.5
2019-04-07T02:53:36.918Z,8.5
2019-04-07T02:54:26.027Z,8.5
2019-04-07T02:55:15.887Z,8.5
2019-04-07T02:56:08.066Z,8.4
2019-04-07T02:56:56.846Z,8.4
2019-04-07T02:57:48.693Z,8.4
2019-04-07T02:58:37.774Z,8.4
2019-04-07T02:59:27.106Z,8.4
2019-04-07T03:00:18.196Z,8.4
2019-04-07T03:01:07.492Z,8.4
2019-04-07T03:01:57.437Z,8.4
2019-04-07T03:02:47.687Z,8.4
2019-04-07T03:03:40.586Z,8.4
2019-04-07T03:07:22.434Z,8.3
2019-04-07T03:07:57.530Z,8.4
2019-04-07T03:08:49.200Z,8.3
2019-04-07T03:09:37.820Z,8.3
2019-04-07T03:10:27.681Z,8.3
2019-04-07T03:11:18.606Z,8.3
2019-04-07T03:12:08.036Z,8.3
2019-04-07T03:12:59.592Z,8.3
2019-04-07T03:13:48.797Z,8.3
2019-04-07T03:14:39.140Z,8.3
2019-04-07T03:15:28.039Z,8.3
2019-04-07T03:16:19.390Z,8.3
2019-04-07T03:17:09.282Z,8.3
2019-04-07T03:17:59.137Z,8.3
2019-04-07T03:18:48.243Z,8.3
2019-04-07T03:19:39.263Z,8.3
2019-04-07T03:20:30.128Z,8.3
2019-04-07T03:21:19.600Z,8.3
2019-04-07T03:22:09.515Z,8.3
2019-04-07T03:23:00.200Z,8.3
2019-04-07T03:23:51.183Z,8.2
2019-04-07T03:24:38.876Z,8.2
2019-04-07T03:25:29.607Z,8.2
2019-04-07T03:26:20.682Z,8.2
2019-04-07T03:27:10.573Z,8.2
2019-04-07T03:28:01.025Z,8.2
2019-04-07T03:28:50.365Z,8.2
2019-04-07T03:29:41.632Z,8.2
2019-04-07T03:30:42.873Z,8.1
2019-04-07T03:31:36.271Z,8.1
2019-04-07T03:32:55.202Z,8.1
2019-04-07T03:34:15.696Z,8.1
2019-04-07T03:35:15.259Z,8.1
2019-04-07T03:37:44.583Z,8.1
2019-04-07T03:38:07.782Z,8.1
2019-04-07T03:38:57.675Z,8.1
2019-04-07T03:39:47.020Z,8.1
2019-04-07T03:40:37.380Z,8.1
2019-04-07T03:41:40.913Z,8.1
2019-04-07T03:42:16.509Z,8.1
2019-04-07T03:43:07.047Z,8
2019-04-07T03:43:59.124Z,8
2019-04-07T03:44:47.477Z,8
2019-04-07T03:45:37.830Z,8
2019-04-07T03:46:28.420Z,8
2019-04-07T03:47:18.273Z,8
2019-04-07T03:48:09.012Z,7.9
2019-04-07T03:48:57.803Z,7.9
2019-04-07T03:49:47.645Z,7.9
2019-04-07T03:50:38.652Z,7.9
2019-04-07T03:51:27.544Z,7.9
2019-04-07T03:52:18.054Z,7.9
2019-04-07T03:53:06.931Z,7.9
2019-04-07T03:53:57.248Z,7.9
2019-04-07T03:54:47.631Z,7.9
2019-04-07T03:55:38.427Z,7.9
2019-04-07T03:56:28.917Z,7.9
2019-04-07T03:57:17.704Z,7.9
2019-04-07T03:58:08.668Z,7.8
2019-04-07T03:58:58.303Z,7.8
2019-04-07T03:59:47.673Z,7.8
2019-04-07T04:00:37.453Z,7.8
2019-04-07T04:01:29.917Z,7.8
2019-04-07T04:02:19.617Z,7.8
2019-04-07T04:03:08.734Z,7.8
2019-04-07T04:03:59.001Z,7.8
2019-04-07T04:04:48.911Z,7.8
2019-04-07T04:05:37.850Z,7.8
2019-04-07T04:06:30.133Z,7.8
2019-04-07T04:07:36.882Z,7.8
2019-04-07T04:08:07.902Z,7.7
2019-04-07T04:08:58.982Z,7.7
2019-04-07T04:09:48.670Z,7.7
2019-04-07T04:10:39.443Z,7.7
2019-04-07T04:11:29.223Z,7.7
2019-04-07T04:12:18.288Z,7.7
2019-04-07T04:13:09.615Z,7.7
2019-04-07T04:13:59.308Z,7.6
2019-04-07T04:14:48.776Z,7.6
2019-04-07T04:15:40.022Z,7.6
2019-04-07T04:16:29.567Z,7.6
2019-04-07T04:17:19.902Z,7.6
2019-04-07T04:18:09.564Z,7.6
2019-04-07T04:19:00.879Z,7.6
2019-04-07T04:19:50.112Z,7.6
2019-04-07T04:20:40.866Z,7.6
2019-04-07T04:21:31.369Z,7.6
2019-04-07T04:22:21.494Z,7.6
2019-04-07T04:23:14.319Z,7.6
2019-04-07T04:24:01.518Z,7.6
2019-04-07T04:24:50.957Z,7.5
2019-04-07T04:25:41.131Z,7.5
2019-04-07T04:26:29.724Z,7.5
2019-04-07T04:27:21.576Z,7.5
2019-04-07T04:28:10.201Z,7.5
2019-04-07T04:29:03.952Z,7.5
2019-04-07T04:29:56.676Z,7.5
2019-04-07T04:30:42.437Z,7.5
2019-04-07T04:31:30.168Z,7.5
2019-04-07T04:32:20.752Z,7.4
2019-04-07T04:33:10.512Z,7.5
2019-04-07T04:34:01.359Z,7.4
2019-04-07T04:34:50.693Z,7.4
2019-04-07T04:35:41.394Z,7.5
2019-04-07T04:36:31.155Z,7.4
2019-04-07T04:37:51.261Z,7.4
2019-04-07T04:38:12.719Z,7.4
2019-04-07T04:39:02.145Z,7.4
2019-04-07T04:39:52.934Z,7.4
2019-04-07T04:40:44.058Z,7.4
2019-04-07T04:41:33.471Z,7.4
2019-04-07T04:42:22.803Z,7.4
2019-04-07T04:43:14.030Z,7.4
2019-04-07T04:44:03.872Z,7.4
2019-04-07T04:44:54.284Z,7.4
2019-04-07T04:45:42.427Z,7.4
2019-04-07T04:46:34.370Z,7.4
2019-04-07T04:47:23.648Z,7.4
2019-04-07T04:48:12.998Z,7.4
2019-04-07T04:49:04.222Z,7.4
2019-04-07T04:49:54.188Z,7.5
2019-04-07T04:50:43.987Z,7.5
2019-04-07T04:51:40.970Z,7.4
2019-04-07T04:52:22.844Z,7.5
2019-04-07T04:53:13.587Z,7.5
2019-04-07T04:54:03.780Z,7.4
2019-04-07T04:54:54.877Z,7.5
2019-04-07T04:55:44.405Z,7.5
2019-04-07T04:56:33.635Z,7.5
2019-04-07T04:57:24.909Z,7.5
2019-04-07T06:05:07.803Z,12.5
2019-04-07T06:06:00.462Z,12.7
2019-04-07T06:06:56.344Z,12.8
2019-04-07T06:07:38.928Z,12.8
2019-04-07T06:08:42.231Z,12.9
2019-04-07T06:09:21.875Z,13.1
2019-04-07T06:10:09.988Z,13.1
2019-04-07T06:11:04.122Z,13.2
2019-04-07T06:11:50.310Z,13.3
2019-04-07T06:12:48.283Z,13.4
2019-04-07T06:13:30.036Z,13.4
2019-04-07T06:14:19.274Z,13.5
2019-04-07T06:15:08.467Z,13.6
2019-04-07T06:15:59.455Z,13.7
2019-04-07T06:16:55.288Z,13.8
2019-04-07T06:17:41.094Z,13.8
2019-04-07T06:18:34.477Z,13.9
2019-04-07T06:19:19.134Z,14
2019-04-07T06:20:17.775Z,14.1
2019-04-07T06:20:59.319Z,14.2
2019-04-07T06:21:50.421Z,14.3
2019-04-07T06:22:40.421Z,14.3
2019-04-07T06:23:31.466Z,14.4
2019-04-07T06:24:22.856Z,14.5
2019-04-07T06:25:11.096Z,14.6
2019-04-07T06:26:00.811Z,14.6
2019-04-07T06:26:50.955Z,14.6
2019-04-07T06:27:40.446Z,14.7
2019-04-07T06:28:29.766Z,14.8
2019-04-07T06:29:23.779Z,14.9
2019-04-07T06:30:10.832Z,14.9
2019-04-07T06:31:03.147Z,14.9
2019-04-07T06:31:50.021Z,15
2019-04-07T06:32:43.612Z,15.1
2019-04-07T06:33:30.902Z,15.1
2019-04-07T06:34:19.571Z,15.1
2019-04-07T06:35:14.160Z,15.2
2019-04-07T06:36:00.973Z,15.3
2019-04-07T06:36:57.006Z,15.3
2019-04-07T06:37:40.695Z,15.3
2019-04-07T06:38:43.070Z,15.4
2019-04-07T06:39:21.708Z,15.4
2019-04-07T06:40:11.112Z,15.4
2019-04-07T06:41:03.454Z,15.5
2019-04-07T06:41:49.660Z,15.5
2019-04-07T06:42:43.630Z,15.6
2019-04-07T06:43:30.261Z,15.6
2019-04-07T06:44:24.309Z,15.7
2019-04-07T06:45:11.897Z,15.7
2019-04-07T06:45:59.948Z,15.8
2019-04-07T06:46:50.285Z,15.8
2019-04-07T06:47:40.783Z,15.9
2019-04-07T06:48:32.074Z,15.9
2019-04-07T06:49:21.851Z,16.1
2019-04-07T06:50:14.105Z,16.1
2019-04-07T06:51:02.886Z,16.1
2019-04-07T06:51:52.225Z,16.2
2019-04-07T06:52:42.848Z,16.3
2019-04-07T06:53:31.168Z,16.3
2019-04-07T06:54:24.523Z,16.4
2019-04-07T06:55:10.922Z,16.4
2019-04-07T06:56:05.964Z,16.5
2019-04-07T06:56:52.188Z,16.6
2019-04-07T06:57:41.656Z,16.6
2019-04-07T06:58:31.856Z,16.7
2019-04-07T06:59:21.904Z,16.8
2019-04-07T07:00:11.247Z,16.8
2019-04-07T07:01:04.615Z,16.9
2019-04-07T07:01:51.388Z,16.9
2019-04-07T07:06:01.793Z,17.3
2019-04-07T07:07:06.232Z,17.4
2019-04-07T07:07:49.714Z,17.6
2019-04-07T07:08:54.019Z,17.6
2019-04-07T07:09:29.399Z,17.8
2019-04-07T07:10:28.596Z,17.8
2019-04-07T07:11:09.459Z,17.9
2019-04-07T07:11:56.116Z,18
2019-04-07T07:12:47.605Z,18.1
2019-04-07T07:13:50.886Z,18.2
2019-04-07T07:14:48.012Z,18.3
2019-04-07T07:15:37.209Z,18.3
2019-04-07T07:16:19.627Z,18.4
2019-04-07T07:17:09.277Z,18.5
2019-04-07T07:18:01.094Z,18.6
2019-04-07T07:19:41.201Z,18.8
2019-04-07T07:20:32.714Z,18.9
2019-04-07T07:21:20.167Z,18.9
2019-04-07T07:22:18.821Z,19
2019-04-07T07:23:52.501Z,19.2
2019-04-07T07:24:56.914Z,19.3
2019-04-07T07:25:35.353Z,19.4
2019-04-07T07:26:22.446Z,19.5
2019-04-07T07:27:12.579Z,19.6
2019-04-07T07:27:59.971Z,19.7
2019-04-07T07:28:49.234Z,19.8
2019-04-07T07:29:40.970Z,19.9
2019-04-07T07:30:30.406Z,20
2019-04-07T07:31:26.586Z,20.1
2019-04-07T07:32:11.490Z,20.3
2019-04-07T07:33:01.904Z,20.4
2019-04-07T07:33:51.030Z,20.6
2019-04-07T07:34:43.916Z,20.6
2019-04-07T07:35:30.945Z,20.8
2019-04-07T07:36:24.498Z,20.9
2019-04-07T07:38:01.492Z,21.2
2019-04-07T10:06:14.840Z,34.2
2019-04-07T10:06:56.631Z,34.3
2019-04-07T10:07:48.879Z,34.4
2019-04-07T10:08:37.897Z,34.4
2019-04-07T10:09:28.499Z,34.5
2019-04-07T10:10:18.160Z,34.6
2019-04-07T10:11:07.583Z,34.6
2019-04-07T10:11:57.751Z,34.7
2019-04-07T10:12:47.315Z,34.8
2019-04-07T10:13:37.631Z,34.9
2019-04-07T10:14:27.989Z,34.9
2019-04-07T10:15:18.783Z,35
2019-04-07T10:16:12.121Z,35.1
2019-04-07T10:16:58.389Z,35.2
2019-04-07T10:17:48.084Z,35.3
2019-04-07T10:18:38.551Z,35.3
2019-04-07T10:19:28.233Z,35.4
2019-04-07T10:20:23.442Z,35.4
2019-04-07T10:21:08.817Z,35.6
2019-04-07T10:22:02.620Z,35.6
2019-04-07T10:22:49.136Z,35.8
2019-04-07T10:23:40.258Z,35.8
2019-04-07T10:24:29.050Z,35.9
2019-04-07T10:25:18.313Z,36
2019-04-07T10:26:09.968Z,36.1
2019-04-07T10:26:59.917Z,36.2
2019-04-07T10:27:49.506Z,36.3
2019-04-07T10:28:43.982Z,36.4
2019-04-07T10:29:28.985Z,36.6
2019-04-07T10:30:20.018Z,36.8
2019-04-07T10:31:09.727Z,37.1
2019-04-07T10:31:58.993Z,37.4
2019-04-07T10:32:50.612Z,37.7
2019-04-07T10:33:39.116Z,37.8
2019-04-07T10:34:29.443Z,37.9
2019-04-07T10:35:20.000Z,38
2019-04-07T10:36:10.262Z,38.1
2019-04-07T10:37:05.375Z,38.3
2019-04-07T10:37:55.057Z,38.4
2019-04-07T10:38:40.069Z,38.7
2019-04-07T10:39:30.803Z,38.8
2019-04-07T10:40:25.438Z,38.9
2019-04-07T10:41:10.712Z,39
2019-04-07T10:42:02.570Z,39.2
2019-04-07T10:42:54.421Z,39.6
2019-04-07T10:43:41.492Z,40
2019-04-07T10:44:32.397Z,40.3
2019-04-07T10:45:20.698Z,40.7
2019-04-07T10:46:11.127Z,41.1
2019-04-07T10:47:01.535Z,41.4
2019-04-07T10:47:52.329Z,41.5
2019-04-07T10:48:40.995Z,41.7
2019-04-07T10:49:30.777Z,41.7
2019-04-07T10:50:22.704Z,41.6
2019-04-07T10:51:12.679Z,41.7
2019-04-07T10:52:01.184Z,41.8
2019-04-07T10:52:52.420Z,42.1
2019-04-07T10:53:42.156Z,42.5
2019-04-07T10:54:31.254Z,42.8
2019-04-07T10:55:22.851Z,42.9
2019-04-07T10:56:12.494Z,43.1
2019-04-07T10:57:02.196Z,43.3
2019-04-07T10:57:54.760Z,43.4
2019-04-07T10:58:43.612Z,43.6
2019-04-07T10:59:33.151Z,43.8
2019-04-07T11:00:24.021Z,43.9
2019-04-07T11:01:11.978Z,44.1
2019-04-07T11:02:02.976Z,44.3
2019-04-07T11:02:58.149Z,44.4
2019-04-07T11:03:41.449Z,44.6
2019-04-07T11:04:32.648Z,44.7
2019-04-07T11:05:24.363Z,44.8
2019-04-07T11:06:13.744Z,44.8
2019-04-07T11:07:03.040Z,44.9
2019-04-07T11:07:51.699Z,44.8
2019-04-07T11:08:43.281Z,44.8
2019-04-07T11:09:32.453Z,44.6
2019-04-07T11:10:40.109Z,44.6
2019-04-07T11:11:14.552Z,44.6
2019-04-07T11:12:04.479Z,44.5
2019-04-07T11:12:54.830Z,44.5
2019-04-07T11:13:43.420Z,44.5
2019-04-07T11:14:34.061Z,44.6
2019-04-07T11:15:23.393Z,44.6
2019-04-07T11:16:13.740Z,44.6
2019-04-07T11:17:06.370Z,44.6
2019-04-07T11:17:53.289Z,44.5
2019-04-07T11:18:43.912Z,44.5
2019-04-07T11:19:35.553Z,44.6
2019-04-07T11:20:22.410Z,44.7
2019-04-07T11:21:13.577Z,44.7
2019-04-07T11:22:02.720Z,44.8
2019-04-07T11:22:54.068Z,44.7
2019-04-07T11:23:45.119Z,44.8
2019-04-07T11:24:33.849Z,44.8
2019-04-07T11:25:23.826Z,44.8
2019-04-07T11:26:14.461Z,44.7
2019-04-07T11:27:04.895Z,44.7
2019-04-07T11:27:55.522Z,44.7
2019-04-07T11:28:45.178Z,44.6
2019-04-07T11:29:39.627Z,44.6
2019-04-07T11:30:24.390Z,44.6
2019-04-07T11:31:13.518Z,44.5
2019-04-07T11:32:03.027Z,44.4
2019-04-07T11:32:55.274Z,44.4
2019-04-07T11:33:44.951Z,44.4
2019-04-07T11:34:34.343Z,44.4
2019-04-07T11:35:31.964Z,44.3
2019-04-07T11:36:21.354Z,44.3
2019-04-07T11:37:04.939Z,44.3
2019-04-07T11:37:54.954Z,44.3
2019-04-07T11:38:45.764Z,44.4
2019-04-07T11:39:35.129Z,44.6
2019-04-07T11:40:25.027Z,44.6
2019-04-07T11:41:14.344Z,44.6
2019-04-07T11:42:07.577Z,44.5
2019-04-07T11:42:55.511Z,44.4
2019-04-07T11:43:45.437Z,44.4
2019-04-07T11:44:35.822Z,44.3
2019-04-07T11:45:25.906Z,44.2
2019-04-07T11:46:16.426Z,44.1
2019-04-07T11:47:05.943Z,44.1
2019-04-07T11:47:55.937Z,44.1
2019-04-07T11:48:46.667Z,43.9
2019-04-07T11:49:36.728Z,43.9
2019-04-07T11:50:25.318Z,43.8
2019-04-07T11:51:16.158Z,43.7
2019-04-07T11:52:05.046Z,43.6
2019-04-07T11:52:57.302Z,43.5
2019-04-07T11:53:46.467Z,43.4
2019-04-07T11:54:38.633Z,43.4
2019-04-07T11:55:31.329Z,43.3
2019-04-07T11:56:16.883Z,43.2
2019-04-07T11:57:06.546Z,43.1
2019-04-07T11:58:31.178Z,43.1
2019-04-07T11:58:55.022Z,42.9
2019-04-07T11:59:44.737Z,42.9
2019-04-07T12:00:35.726Z,42.8
2019-04-07T12:01:25.053Z,42.8
2019-04-07T12:02:20.770Z,42.7
2019-04-07T12:03:06.065Z,42.6
2019-04-07T12:03:57.678Z,42.6
2019-04-07T12:06:09.160Z,42.4
2019-04-07T12:06:58.570Z,42.4
2019-04-07T12:07:52.798Z,42.3
2019-04-07T12:08:40.411Z,42.3
2019-04-07T12:09:28.278Z,42.2
2019-04-07T12:10:18.386Z,42.2
2019-04-07T12:11:07.810Z,42.1
2019-04-07T12:11:59.799Z,42.1
2019-04-07T12:12:49.911Z,42
2019-04-07T12:13:45.062Z,42
2019-04-07T12:14:29.529Z,41.9
2019-04-07T12:15:30.172Z,41.9
2019-04-07T12:16:10.288Z,41.8
2019-04-07T12:17:09.447Z,41.8
2019-04-07T12:17:48.082Z,41.8
2019-04-07T12:18:39.678Z,41.7
2019-04-07T12:19:31.128Z,41.6
2019-04-07T12:20:18.376Z,41.6
2019-04-07T12:21:19.173Z,41.6
2019-04-07T12:21:59.402Z,41.5
2019-04-07T12:22:51.192Z,41.5
2019-04-07T12:23:41.345Z,41.5
2019-04-07T12:24:45.484Z,41.4
2019-04-07T12:25:20.012Z,41.4
2019-04-07T12:26:09.627Z,41.4
2019-04-07T12:27:03.597Z,41.3
2019-04-07T12:27:49.054Z,41.3
2019-04-07T12:28:39.147Z,41.3
2019-04-07T12:29:29.639Z,41.2
2019-04-07T12:30:23.894Z,41.2
2019-04-07T12:31:11.918Z,41.2
2019-04-07T12:31:59.713Z,41.1
2019-04-07T12:32:48.625Z,41.1
2019-04-07T12:33:41.996Z,41.1
2019-04-07T12:34:30.669Z,41
2019-04-07T12:35:22.414Z,41
2019-04-07T12:36:14.543Z,40.9
2019-04-07T12:37:09.055Z,40.9
2019-04-07T12:37:50.206Z,40.9
2019-04-07T12:38:46.659Z,40.9
2019-04-07T12:39:36.077Z,40.8
2019-04-07T12:40:25.721Z,40.8
2019-04-07T12:41:24.452Z,40.8
2019-04-07T12:42:08.457Z,40.8
2019-04-07T12:42:51.292Z,40.7
2019-04-07T12:43:47.611Z,40.7
2019-04-07T12:44:31.060Z,40.6
2019-04-07T12:45:20.583Z,40.6
2019-04-07T12:46:11.667Z,40.6
2019-04-07T12:47:00.515Z,40.5
2019-04-07T12:47:51.727Z,40.4
2019-04-07T12:48:43.513Z,40.4
2019-04-07T12:49:35.183Z,40.4
2019-04-07T12:50:22.923Z,40.3
2019-04-07T12:51:12.191Z,40.3
2019-04-07T12:52:01.453Z,40.2
2019-04-07T12:52:51.811Z,40.2
2019-04-07T12:53:43.356Z,40.1
2019-04-07T12:54:31.775Z,40.1
2019-04-07T12:55:22.407Z,40.1
2019-04-07T12:56:11.932Z,40.1
2019-04-07T12:57:09.423Z,40
2019-04-07T12:57:52.534Z,39.9
2019-04-07T12:58:49.176Z,39.9
2019-04-07T12:59:31.422Z,39.9
2019-04-07T13:00:26.302Z,39.9
2019-04-07T13:01:32.736Z,39.8
2019-04-07T13:02:22.888Z,39.8
2019-04-07T13:03:13.364Z,39.8
2019-04-07T13:04:01.722Z,39.8
2019-04-07T13:04:53.300Z,39.7
2019-04-07T13:05:42.653Z,39.7
2019-04-07T13:06:31.984Z,39.6
2019-04-07T13:07:23.547Z,39.6
2019-04-07T13:08:12.999Z,39.6
2019-04-07T13:09:01.520Z,39.6
2019-04-07T13:09:53.611Z,39.5
2019-04-07T13:10:42.947Z,39.5
2019-04-07T13:11:48.825Z,39.4
2019-04-07T13:12:27.800Z,39.4
2019-04-07T13:13:13.448Z,39.3
2019-04-07T13:14:10.145Z,39.3
2019-04-07T13:14:51.744Z,39.2
2019-04-07T13:15:51.026Z,39.1
2019-04-07T13:16:32.209Z,38.9
2019-04-07T13:17:23.143Z,38.8
2019-04-07T13:18:14.079Z,38.8
2019-04-07T13:19:13.164Z,38.8
2019-04-07T13:19:52.436Z,38.8
2019-04-07T13:20:44.111Z,38.7
2019-04-07T13:21:32.810Z,38.7
2019-04-07T13:22:23.085Z,38.6
2019-04-07T13:23:14.155Z,38.6
2019-04-07T13:24:15.383Z,38.6
2019-04-07T13:25:10.134Z,38.6
2019-04-07T13:26:02.104Z,38.6
2019-04-07T13:26:50.580Z,38.6
2019-04-07T13:27:41.528Z,38.5
2019-04-07T13:28:30.477Z,38.5
2019-04-07T13:29:20.381Z,38.4
2019-04-07T13:30:09.741Z,38.4
2019-04-07T13:30:59.800Z,38.4
2019-04-07T13:31:50.840Z,38.4
2019-04-07T13:32:55.076Z,38.4
2019-04-07T13:33:30.618Z,38.4
2019-04-07T13:34:21.012Z,38.4
2019-04-07T13:35:10.096Z,38.4
2019-04-07T13:36:01.741Z,38.4
2019-04-07T13:36:54.457Z,38.3
2019-04-07T13:37:43.547Z,38.3
2019-04-07T13:38:30.082Z,38.3
2019-04-07T13:39:21.183Z,38.3
2019-04-07T13:40:15.702Z,38.2
2019-04-07T13:41:00.578Z,38.1
2019-04-07T13:41:57.805Z,38
2019-04-07T13:42:44.466Z,37.9
2019-04-07T13:43:37.055Z,37.8
2019-04-07T13:44:21.557Z,37.6
2019-04-07T13:45:16.796Z,37.5
2019-04-07T13:46:02.409Z,37.4
2019-04-07T13:46:50.957Z,37.2
2019-04-07T13:47:45.926Z,37.1
2019-04-07T13:48:32.255Z,37
2019-04-07T13:49:28.986Z,36.9
2019-04-07T13:50:12.726Z,36.8
2019-04-07T13:51:02.076Z,36.6
2019-04-07T13:51:52.538Z,36.6
2019-04-07T13:52:42.979Z,36.4
2019-04-07T13:53:47.649Z,36.3
2019-04-07T13:54:23.046Z,36.2
2019-04-07T13:55:13.013Z,36.1
2019-04-07T13:56:02.262Z,36
2019-04-07T13:56:53.644Z,35.9
2019-04-07T13:57:41.746Z,35.8
2019-04-07T13:58:37.270Z,35.7
2019-04-07T13:59:23.654Z,35.6
2019-04-07T14:00:17.365Z,35.5
2019-04-07T14:01:03.088Z,35.4
2019-04-07T14:02:07.385Z,35.3
2019-04-07T14:02:43.174Z,35.2
2019-04-07T14:03:33.754Z,35.1
2019-04-07T14:05:13.841Z,34.9
2019-04-07T14:07:08.902Z,34.7
2019-04-07T14:07:58.807Z,34.6
2019-04-07T14:08:47.526Z,34.5
2019-04-07T14:09:38.998Z,34.4
2019-04-07T14:10:28.543Z,34.4
2019-04-07T14:11:18.710Z,34.3
2019-04-07T14:12:15.417Z,34.2
2019-04-07T14:12:58.644Z,34.1
2019-04-07T14:13:47.913Z,34
2019-04-07T14:14:39.422Z,33.9
2019-04-07T16:07:09.143Z,23.3
2019-04-07T16:07:58.328Z,23.2
2019-04-07T16:08:51.093Z,23.1
2019-04-07T16:10:07.993Z,22.9
2019-04-07T16:10:57.257Z,22.9
2019-04-07T16:11:50.794Z,22.8
2019-04-07T16:12:57.976Z,22.8
2019-04-07T16:13:29.766Z,22.6
2019-04-07T16:14:18.183Z,22.6
2019-04-07T16:15:07.351Z,22.5
2019-04-07T16:15:57.464Z,22.4
2019-04-07T16:16:48.262Z,22.4
2019-04-07T16:17:38.945Z,22.3
2019-04-07T16:18:28.444Z,22.2
2019-04-07T16:19:46.369Z,22.1
2019-04-07T16:20:44.181Z,21.9
2019-04-07T16:21:33.164Z,21.9
2019-04-07T16:22:23.546Z,21.9
2019-04-07T16:23:19.531Z,21.8
2019-04-07T16:24:03.427Z,21.7
2019-04-07T16:24:57.785Z,21.6
2019-04-07T16:25:42.785Z,21.6
2019-04-07T16:26:38.081Z,21.5
2019-04-07T16:27:24.425Z,21.4
2019-04-07T16:28:17.235Z,21.3
2019-04-07T16:29:03.874Z,21.3
2019-04-07T16:29:53.445Z,21.2
2019-04-07T16:31:34.920Z,21.1
2019-04-07T16:32:24.171Z,21
2019-04-07T16:33:14.079Z,20.9
2019-04-07T16:34:10.726Z,20.9
2019-04-07T16:34:54.122Z,20.8
2019-04-07T16:35:56.593Z,20.8
2019-04-07T16:36:35.030Z,20.7
2019-04-07T16:37:25.027Z,20.6
2019-04-07T16:38:16.342Z,20.6
2019-04-07T16:39:06.051Z,20.5
2019-04-07T16:39:54.006Z,20.4
2019-04-07T16:40:45.654Z,20.3
2019-04-07T16:41:34.988Z,20.3
2019-04-07T16:42:24.090Z,20.2
2019-04-07T16:43:20.724Z,20.1
2019-04-07T16:44:12.027Z,20.1
2019-04-07T16:44:55.855Z,20.1
2019-04-07T16:45:49.046Z,19.9
2019-04-07T16:46:36.795Z,19.9
2019-04-07T16:47:37.098Z,19.8
2019-04-07T16:48:16.122Z,19.8
2019-04-07T16:49:07.715Z,19.7
2019-04-07T16:49:55.355Z,19.6
2019-04-07T16:50:50.948Z,19.6
2019-04-07T16:51:37.053Z,19.5
2019-04-07T16:52:27.264Z,19.5
2019-04-07T16:53:15.164Z,19.4
2019-04-07T16:54:11.727Z,19.3
2019-04-07T16:54:56.533Z,19.3
2019-04-07T16:55:56.124Z,19.2
2019-04-07T16:56:35.969Z,19.1
2019-04-07T16:57:34.282Z,19.1
2019-04-07T16:58:17.748Z,19
2019-04-07T16:59:11.030Z,18.9
2019-04-07T16:59:56.808Z,18.9